Latest Weather Observations for Maatsuyker Island

IDT60801

Issued at 2:32 pm EST Sunday 23 July 2017 (issued every 30 minutes, with the page automatically refreshed every 10 minutes)

About weather observations | Map of weather stations | Latest weather observations for TAS | Other Formats
Station Details ID: 094041 Name: MAATSUYKER ISLAND LIGHTHOUSE Lat: -43.66 Lon: 146.27 Height: 146.5 m
Data from the previous 72 hours. | See also: Recent months at Maatsuyker Island
Date/Time
EST
Temp
°C
App
Temp
°C
Dew
Point
°C
Rel
Hum
%
Delta-T
°C
Wind Press
QNH
hPa
Press
MSL
hPa
Rain since
9am
mm
Dir  Spd
km/h
Gust
km/h
Spd
kts
Gust
kts
23/02:30pm 5.8 -1.5 2.4 79 1.4 SW 30 43 16 23 1003.2 - 0.4
23/02:00pm 6.3 -1.8 3.0 79 1.4 SSW 35 48 19 26 1002.8 - 0.4
23/01:40pm 6.5 -1.1 3.0 78 1.5 SSW 32 50 17 27 1002.1 - 0.4
23/01:30pm 6.3 -0.3 4.0 85 1.0 WSW 28 43 15 23 1002.4 - 0.4
23/01:00pm 6.7 -0.6 2.4 74 1.8 SW 30 37 16 20 1001.8 - 0.4
23/12:57pm 6.8 -0.4 2.8 75 1.7 WSW 30 35 16 19 1001.8 - 0.4
23/12:30pm 6.8 -2.0 3.8 81 1.3 SSW 39 46 21 25 1001.5 - 0.4
23/12:07pm 6.6 -1.4 5.7 94 0.4 SSW 37 41 20 22 1001.3 - 0.4
23/12:00pm 7.0 -2.6 6.1 94 0.4 S 46 56 25 30 1001.0 1001.2 0.4
23/11:30am 6.9 -1.1 5.6 91 0.6 S 37 44 20 24 1000.9 - 0.2
23/11:00am 7.5 -2.5 6.2 91 0.6 S 48 56 26 30 1000.2 - 0.2
23/10:30am 7.7 -1.4 6.6 93 0.5 S 44 52 24 28 999.7 - 0.2
23/10:00am 7.7 -1.4 6.6 93 0.5 S 44 54 24 29 999.3 - 0.2
23/09:30am 8.3 -1.1 7.2 93 0.5 SSW 46 54 25 29 998.7 - 0.0
23/09:26am 8.5 -0.8 7.5 93 0.5 SSW 46 50 25 27 998.6 - 0.0
23/09:18am 8.8 2.0 6.9 88 0.9 SW 32 50 17 27 998.5 - 0.0
23/09:14am 8.8 2.0 7.1 89 0.8 SW 32 39 17 21 998.6 - 0.0
23/09:13am 8.8 0.7 7.1 89 0.8 W 39 54 21 29 998.6 - 0.0
23/09:00am 8.0 -2.7 4.4 78 1.6 WNW 50 65 27 35 998.2 998.4 17.0
23/08:44am 9.0 -1.9 7.1 88 0.9 WNW 54 61 29 33 997.6 - 17.0
23/08:30am 9.5 -5.4 6.3 80 1.5 NW 74 87 40 47 997.0 - 17.0
23/08:00am 9.7 -4.7 6.8 82 1.4 NW 72 82 39 44 996.1 - 17.0
23/07:30am 9.5 -5.3 7.0 84 1.2 NW 74 83 40 45 996.0 - 17.0
23/07:00am 9.4 -3.2 7.3 87 1.0 NW 63 70 34 38 995.8 - 16.8
23/06:30am 9.1 -2.2 8.1 93 0.5 NW 57 67 31 36 995.4 - 16.8
23/06:00am 8.5 -2.4 7.2 91 0.6 NNW 54 67 29 36 995.4 995.5 16.2
23/05:49am 8.2 -4.5 6.7 90 0.7 NNW 63 82 34 44 995.2 - 16.0
23/05:30am 9.9 -4.5 6.8 81 1.5 NW 72 80 39 43 994.7 - 15.8
23/05:00am 10.2 -4.8 5.7 73 2.1 NW 74 87 40 47 994.5 - 15.8
23/04:30am 10.4 -5.8 7.3 81 1.5 NW 82 89 44 48 994.1 - 15.8
23/04:00am 9.8 -3.9 7.3 84 1.2 NNW 69 82 37 44 994.2 - 15.8
23/03:30am 9.3 -5.0 7.2 87 1.0 NNW 72 83 39 45 994.5 - 15.6
23/03:00am 9.4 -6.1 6.9 84 1.2 NNW 78 95 42 51 994.4 994.6 15.0
23/02:59am 9.4 -5.8 6.9 84 1.2 NNW 76 95 41 51 994.2 - 15.0
23/02:53am 9.3 -4.3 7.7 90 0.8 NNW 69 76 37 41 994.8 - 15.0
23/02:30am 8.9 -8.9 7.7 92 0.6 NW 91 106 49 57 995.2 - 14.8
23/02:26am 8.7 -8.9 8.5 99 0.1 NNW 91 102 49 55 994.7 - 14.8
23/02:13am 8.5 -4.3 7.9 96 0.3 NNW 65 87 35 47 995.6 - 13.6
23/02:00am 7.9 -5.4 7.5 97 0.2 NNW 67 76 36 41 995.6 - 13.4
23/01:50am 8.7 -8.4 7.7 93 0.5 NW 87 106 47 57 995.4 - 12.6
23/01:49am 10.0 -2.3 8.6 91 0.7 NNW 63 98 34 53 995.8 - 12.2
23/01:35am 9.7 -1.4 8.9 95 0.4 NNW 57 76 31 41 995.7 - 12.2
23/01:30am 9.9 -1.6 8.7 92 0.6 NNW 59 76 32 41 995.5 - 12.0
23/01:00am 9.6 0.3 9.0 96 0.3 NNW 48 67 26 36 996.0 - 11.2
23/12:52am 9.7 -0.7 9.3 97 0.2 NNW 54 72 29 39 996.5 - 10.2
23/12:49am 9.8 -1.2 9.2 96 0.3 NNW 57 72 31 39 996.4 - 10.0
23/12:36am 9.6 1.9 8.8 95 0.4 NNW 39 57 21 31 996.7 - 9.6
23/12:30am 9.4 0.4 8.8 96 0.3 NNW 46 61 25 33 996.8 - 9.6
23/12:00am 8.8 0.6 8.4 97 0.2 NNW 41 54 22 29 996.8 996.9 9.0
 
Date/Time
EST
Temp
°C
App
Temp
°C
Dew
Point
°C
Rel
Hum
%
Delta-T
°C
Wind Press
QNH
hPa
Press
MSL
hPa
Rain since
9am
mm
Dir  Spd
km/h
Gust
km/h
Spd
kts
Gust
kts
22/11:52pm 8.7 -0.4 8.5 99 0.1 NNW 46 54 25 29 996.9 - 9.0
22/11:40pm 9.1 -3.5 8.9 99 0.1 NNW 65 72 35 39 996.7 - 7.6
22/11:30pm 9.0 -7.0 8.8 99 0.1 NW 83 95 45 51 996.4 - 6.8
22/11:00pm 8.9 -7.0 8.5 97 0.2 NW 82 102 44 55 996.7 - 3.4
22/10:57pm 8.8 -7.3 8.4 97 0.2 NW 83 102 45 55 996.4 - 3.2
22/10:53pm 8.9 -7.1 8.1 95 0.4 NW 82 91 44 49 996.6 - 2.8
22/10:30pm 11.8 0.2 9.9 88 1.0 NNW 61 82 33 44 996.5 - 1.4
22/10:00pm 11.6 0.7 9.7 88 1.0 NNW 57 85 31 46 997.1 - 1.0
22/09:30pm 11.8 0.5 9.3 85 1.3 NNW 59 80 32 43 997.4 - 1.0
22/09:00pm 11.3 1.8 9.7 90 0.8 NNW 50 74 27 40 997.9 998.1 0.6
22/08:37pm 11.7 2.5 9.4 86 1.2 NNW 48 67 26 36 998.4 - 0.4
22/08:30pm 11.8 2.5 9.0 83 1.4 NNW 48 65 26 35 998.6 - 0.4
22/08:07pm 11.7 2.1 9.6 87 1.1 NNW 50 69 27 37 999.2 - 0.4
22/08:00pm 11.9 1.9 9.4 85 1.3 NNW 52 69 28 37 999.1 - 0.4
22/07:37pm 11.7 1.7 9.3 85 1.2 NNW 52 70 28 38 999.7 - 0.4
22/07:30pm 11.6 1.2 9.4 86 1.1 NNW 54 70 29 38 999.6 - 0.4
22/07:03pm 11.6 1.6 9.4 86 1.1 NNW 52 70 28 38 999.9 - 0.4
22/07:00pm 11.6 1.2 9.4 86 1.1 NNW 54 70 29 38 1000.0 - 0.4
22/06:42pm 11.5 2.6 9.3 86 1.1 NNW 46 65 25 35 1000.2 - 0.4
22/06:30pm 11.4 2.1 9.2 86 1.1 NNW 48 63 26 34 1000.4 - 0.4
22/06:00pm 11.3 2.4 9.1 86 1.1 NNW 46 69 25 37 1000.8 1001.0 0.2
22/05:30pm 11.5 1.0 8.9 84 1.3 NNW 54 74 29 40 1000.7 - 0.2
22/05:29pm 11.4 0.9 9.0 85 1.2 NNW 54 74 29 40 1000.6 - 0.2
22/05:00pm 11.3 1.2 8.9 85 1.2 NNW 52 69 28 37 1000.9 - 0.2
22/04:30pm 11.4 0.8 8.6 83 1.4 NNW 54 72 29 39 1001.1 - 0.2
22/04:00pm 11.3 1.5 8.7 84 1.3 NNW 50 69 27 37 1001.1 - 0.2
22/03:00pm 11.9 0.6 7.9 76 2.0 NNW 57 76 31 41 1001.7 1001.9 0.0
22/02:30pm 11.9 0.8 7.9 76 2.0 NNW 56 76 30 41 1002.1 - 0.0
22/02:04pm 11.7 1.4 8.1 78 1.8 NNW 52 70 28 38 1002.7 - 0.0
22/02:00pm 11.7 1.0 8.1 78 1.8 NNW 54 70 29 38 1002.7 - 0.0
22/01:30pm 11.7 1.4 8.1 78 1.8 NNW 52 70 28 38 1003.1 - 0.0
22/01:09pm 11.7 2.1 7.9 77 1.9 NNW 48 67 26 36 1003.4 - 0.0
22/01:00pm 11.6 1.6 8.0 78 1.8 NNW 50 63 27 34 1003.7 - 0.0
22/12:30pm 11.4 1.0 7.7 78 1.8 NNW 52 76 28 41 1004.3 - 0.0
22/12:04pm 11.2 0.5 8.0 81 1.6 NNW 54 72 29 39 1004.8 - 0.0
22/12:00pm 11.1 0.7 7.8 80 1.6 NNW 52 69 28 37 1004.9 1005.1 0.0
22/11:51am 11.0 1.7 7.5 79 1.7 NNW 46 65 25 35 1005.5 - 0.0
22/11:30am 11.6 1.4 7.1 74 2.2 NNW 50 63 27 34 1005.8 - 0.0
22/11:00am 11.4 1.2 6.8 73 2.2 NNW 50 69 27 37 1006.3 - 0.0
22/10:30am 11.2 0.9 6.4 72 2.3 NNW 50 69 27 37 1006.5 - 0.0
22/10:00am 10.7 -0.2 5.5 70 2.4 NNW 52 74 28 40 1006.7 - 0.0
22/09:39am 10.6 -0.3 5.4 70 2.4 NNW 52 72 28 39 1006.8 - 0.0
22/09:30am 10.6 -0.3 5.4 70 2.4 NNW 52 69 28 37 1007.1 - 0.0
22/09:00am 10.3 0.1 5.1 70 2.4 NNW 48 61 26 33 1007.6 1007.8 0.0
22/08:32am 10.2 0.3 4.9 69 2.4 NNW 46 65 25 35 1007.9 - 0.0
22/08:30am 10.2 -0.1 4.7 68 2.5 NNW 48 65 26 35 1007.8 - 0.0
22/08:01am 9.9 -0.4 4.6 69 2.4 NNW 48 67 26 36 1008.2 - 0.0
22/08:00am 9.9 -0.9 4.3 68 2.5 NNW 50 67 27 36 1008.1 - 0.0
22/07:38am 9.9 0.0 4.6 69 2.4 NNW 46 65 25 35 1008.2 - 0.0
22/07:30am 9.9 0.0 4.6 69 2.4 NNW 46 61 25 33 1008.6 - 0.0
22/07:14am 9.8 -0.5 4.5 69 2.4 NNW 48 67 26 36 1008.7 - 0.0
22/07:00am 9.5 -0.4 4.6 71 2.2 NNW 46 63 25 34 1008.7 - 0.0
22/06:36am 9.5 -0.1 4.4 70 2.3 NNW 44 69 24 37 1009.3 - 0.0
22/06:30am 9.5 -0.4 4.6 71 2.2 NNW 46 61 25 33 1009.4 - 0.0
22/06:00am 9.4 -0.3 4.0 69 2.4 NNW 44 56 24 30 1009.6 1009.8 0.0
22/05:47am 9.2 -0.3 3.7 68 2.4 NNW 43 61 23 33 1009.5 - 0.0
22/05:30am 9.2 -0.5 3.7 68 2.4 NNW 44 61 24 33 1010.1 - 0.0
22/05:12am 9.0 -0.5 3.8 70 2.3 NNW 43 61 23 33 1010.1 - 0.0
22/05:00am 9.1 -0.5 3.6 68 2.4 NNW 43 57 23 31 1010.3 - 0.0
22/04:35am 9.2 0.4 3.7 68 2.4 NNW 39 57 21 31 1010.8 - 0.0
22/04:30am 9.3 0.6 3.9 69 2.4 NNW 39 50 21 27 1010.9 - 0.0
22/04:11am 9.0 0.9 3.5 68 2.4 N 35 54 19 29 1011.2 - 0.0
22/04:00am 8.8 0.7 3.5 69 2.3 N 35 48 19 26 1011.2 - 0.0
22/03:30am 8.7 -0.6 3.1 68 2.4 N 41 52 22 28 1011.7 - 0.0
22/03:13am 8.7 -0.5 3.7 71 2.2 N 41 59 22 32 1011.9 - 0.0
22/03:00am 8.7 -0.8 3.7 71 2.2 N 43 56 23 30 1012.1 1012.3 0.0
22/02:39am 8.7 -1.0 3.7 71 2.2 NNW 44 65 24 35 1012.3 - 0.0
22/02:30am 8.8 -0.9 4.0 72 2.1 NNW 44 56 24 30 1012.4 - 0.0
22/02:00am 8.7 -0.8 3.9 72 2.1 NNW 43 54 23 29 1012.9 - 0.0
22/01:30am 8.4 -1.0 4.3 75 1.8 NNW 43 56 23 30 1013.2 - 0.0
22/01:00am 8.4 -1.0 4.3 75 1.8 NNW 43 54 23 29 1013.9 - 0.0
22/12:30am 8.3 -1.1 4.5 77 1.7 NNW 43 54 23 29 1014.4 - 0.0
22/12:09am 8.4 -0.7 4.1 74 1.9 NNW 41 61 22 33 1014.7 - 0.0
22/12:00am 8.6 -0.4 4.3 74 1.9 NNW 41 54 22 29 1015.0 1015.3 0.0
 
Date/Time
EST
Temp
°C
App
Temp
°C
Dew
Point
°C
Rel
Hum
%
Delta-T
°C
Wind Press
QNH
hPa
Press
MSL
hPa
Rain since
9am
mm
Dir  Spd
km/h
Gust
km/h
Spd
kts
Gust
kts
21/11:30pm 8.7 -0.4 4.2 73 2.0 NNW 41 54 22 29 1015.4 - 0.0
21/11:17pm 8.8 1.0 4.8 76 1.8 NNW 35 54 19 29 1015.7 - 0.0
21/11:00pm 8.7 0.4 4.4 74 1.9 NNW 37 54 20 29 1015.9 - 0.0
21/10:30pm 8.6 1.4 4.8 77 1.7 NNW 32 46 17 25 1016.5 - 0.0
21/10:00pm 8.4 1.5 4.6 77 1.7 NNW 30 39 16 21 1016.8 - 0.0
21/09:30pm 8.8 1.8 4.3 73 2.0 NNW 30 41 16 22 1016.8 - 0.0
21/09:00pm 8.9 3.2 4.9 76 1.8 NNW 24 33 13 18 1017.0 1017.2 0.0
21/08:30pm 8.8 3.0 4.5 74 1.9 NNW 24 33 13 18 1017.2 - 0.0
21/08:00pm 8.3 3.5 4.9 79 1.5 N 19 26 10 14 1017.2 - 0.0
21/07:30pm 8.5 3.7 4.7 77 1.7 N 19 24 10 13 1017.4 - 0.0
21/07:00pm 8.4 4.1 5.1 80 1.5 N 17 24 9 13 1017.6 - 0.0
21/06:30pm 8.9 4.3 5.4 79 1.6 N 19 28 10 15 1018.0 - 0.0
21/06:00pm 9.1 4.5 5.4 77 1.7 NNW 19 28 10 15 1018.2 1018.4 0.0
21/05:30pm 9.4 4.8 5.5 76 1.8 NNW 19 28 10 15 1018.4 - 0.0
21/05:00pm 9.7 4.1 5.6 75 1.9 NNW 24 32 13 17 1018.5 - 0.0
21/04:30pm 10.1 4.5 5.5 73 2.1 NNW 24 28 13 15 1018.6 - 0.0
21/04:00pm 10.4 4.5 5.6 72 2.2 NW 26 32 14 17 1018.5 - 0.0
21/03:30pm 10.5 5.9 5.8 72 2.2 NNW 19 26 10 14 1018.7 - 0.0
21/03:00pm 10.3 5.4 5.3 71 2.3 NNW 20 30 11 16 1018.7 1018.9 0.0
21/02:30pm 10.5 6.0 6.2 75 2.0 NNW 19 26 10 14 1018.7 - 0.0
21/02:00pm 10.5 5.7 5.8 72 2.2 NNW 20 28 11 15 1018.9 - 0.0
21/01:30pm 10.0 5.3 5.9 75 1.9 NNW 20 26 11 14 1019.3 - 0.0
21/01:00pm 9.9 5.4 6.0 77 1.8 NNW 19 24 10 13 1019.8 - 0.0
21/12:30pm 9.5 4.9 5.8 78 1.7 NNW 19 26 10 14 1020.4 - 0.0
21/12:00pm 9.0 4.9 6.2 82 1.3 NNW 17 24 9 13 1020.8 1021.1 0.0
21/11:30am 9.1 5.1 6.5 84 1.2 NNW 17 20 9 11 1021.4 - 0.0
21/11:00am 8.7 4.2 6.3 85 1.1 NNW 19 22 10 12 1021.7 - 0.0
21/10:30am 8.1 4.0 6.1 87 0.9 NNW 17 24 9 13 1021.9 - 0.0
21/10:00am 7.8 2.2 5.6 86 1.0 NNW 24 32 13 17 1021.9 - 0.0
21/09:30am 7.6 2.5 5.8 88 0.8 NNW 22 30 12 16 1021.9 - 0.0
21/09:00am 7.6 3.1 6.3 91 0.6 NNW 19 28 10 15 1021.8 1022.1 2.0
21/08:30am 7.5 2.8 6.2 91 0.6 NNW 20 28 11 15 1021.6 - 2.0
21/08:00am 7.2 3.2 6.8 97 0.2 NNW 17 22 9 12 1021.5 - 1.8
21/07:30am 7.3 2.8 6.9 97 0.2 NNW 20 22 11 12 1021.3 - 1.2
21/07:00am 7.7 3.2 6.8 94 0.4 NNW 20 24 11 13 1021.2 - 1.2
21/06:30am 7.4 2.9 6.8 96 0.3 NNW 20 24 11 13 1021.2 - 1.2
21/06:00am 7.6 3.7 7.0 96 0.3 NNW 17 22 9 12 1020.9 1021.2 1.2
21/05:30am 7.6 4.4 7.0 96 0.3 N 13 17 7 9 1020.8 - 1.2
21/05:00am 7.7 5.3 7.1 96 0.3 N 9 15 5 8 1020.7 - 1.2
21/04:30am 7.7 5.3 6.8 94 0.4 N 9 15 5 8 1020.8 - 0.8
21/04:00am 7.9 5.2 7.3 96 0.3 N 11 13 6 7 1020.8 - 0.8
21/03:30am 8.1 5.7 7.2 94 0.4 N 9 13 5 7 1021.0 - 0.4
21/03:00am 8.3 6.3 7.0 91 0.6 N 7 13 4 7 1021.2 1021.5 0.4
21/02:30am 8.3 3.8 6.3 87 0.9 S 19 24 10 13 1021.1 - 0.4
21/02:00am 8.3 3.7 6.3 87 0.9 W 20 24 11 13 1021.3 - 0.0
21/01:30am 8.5 5.1 5.9 84 1.2 WSW 13 17 7 9 1021.1 - 0.0
21/01:00am 8.6 5.5 5.5 81 1.4 W 11 19 6 10 1020.9 - 0.0
21/12:30am 8.2 5.0 5.3 82 1.3 SSW 11 15 6 8 1021.1 - 0.0
21/12:00am 8.3 4.4 5.4 82 1.3 SSW 15 19 8 10 1021.0 1021.3 0.0
 
Date/Time
EST
Temp
°C
App
Temp
°C
Dew
Point
°C
Rel
Hum
%
Delta-T
°C
Wind Press
QNH
hPa
Press
MSL
hPa
Rain since
9am
mm
Dir  Spd
km/h
Gust
km/h
Spd
kts
Gust
kts
20/11:30pm 8.6 5.2 6.0 84 1.2 SW 13 17 7 9 1020.9 - 0.0
20/11:00pm 7.9 3.9 5.0 82 1.3 S 15 19 8 10 1020.8 - 0.0
20/10:30pm 8.0 4.1 5.3 83 1.2 SSE 15 17 8 9 1020.8 - 0.0
20/10:00pm 8.4 1.9 6.7 89 0.8 S 30 39 16 21 1020.6 - 0.0
20/09:30pm 8.4 3.8 5.5 82 1.3 SSE 19 22 10 12 1020.6 - 0.0
20/09:00pm 8.6 4.0 5.7 82 1.3 SSE 19 26 10 14 1020.2 1020.4 0.0
20/08:30pm 8.5 3.6 4.9 78 1.6 SSE 20 22 11 12 1019.9 - 0.0
20/08:00pm 8.4 6.2 5.1 80 1.5 NE 6 11 3 6 1019.7 - 0.0
20/07:30pm 8.6 6.2 5.3 80 1.5 NE 7 15 4 8 1019.3 - 0.0
20/07:00pm 8.8 6.9 5.0 77 1.7 NNE 4 9 2 5 1019.1 - 0.0
20/06:30pm 9.0 7.2 5.2 77 1.7 NNE 4 7 2 4 1018.8 - 0.0
20/06:00pm 8.6 6.6 4.3 74 1.9 NNE 4 7 2 4 1018.3 1018.5 0.0
20/05:30pm 9.0 7.1 5.0 76 1.8 N 4 11 2 6 1017.9 - 0.0
20/05:00pm 9.4 7.1 5.5 76 1.8 N 7 13 4 7 1017.4 - 0.0
20/04:30pm 9.6 6.5 5.7 76 1.8 NE 11 22 6 12 1017.1 - 0.0
20/04:00pm 10.5 7.5 5.8 72 2.2 ENE 11 28 6 15 1016.8 - 0.0
20/03:30pm 10.7 8.0 5.5 70 2.4 NE 9 19 5 10 1016.2 - 0.0
20/03:00pm 10.3 3.9 5.3 71 2.3 SE 28 43 15 23 1015.5 1015.8 0.0
20/02:43pm 9.8 5.3 6.2 78 1.7 ENE 19 35 10 19 1015.1 - 0.0

Other Formats:

Comma delimited format used in spreadsheet applications
http://www.bom.gov.au/fwo/IDT60801/IDT60801.94962.axf

JavaScript Object Notation format (JSON) in row-major order
http://www.bom.gov.au/fwo/IDT60801/IDT60801.94962.json